TAR655 LFPO-DTTJ
Flight info
| Callsign | TAR655 |
|---|---|
| Flight time | 2h 19m |
| Altitude | 37000 |
| Route | ERIXU DCT ETAMO DCT ADEKA DCT MOKDI DCT MEN DCT AMLIR DCT FJR DCT DIVKO DCT JUSQO DCT FIRRA DCT NAFOQ DCT SALMA UG6 DIMAO UZ147 KIRAS A856 TINAP |
| Aircraft | A320/M-SDE3FGHIRWY/LB1 |
Departure
| Time | 2026-04-22 17:13 |
|---|---|
| Airport | Paris-Orly Airport (LFPO) |
Arrival
| Time | 2026-04-22 19:32 |
|---|---|
| Airport | Djerba Zarzis International Airport (DTTJ) |
| Time | Latitude | Longitude | Altitude | Speed | Heading |
|---|---|---|---|---|---|
| 2026-04-22 16:52 | 48.72630 | 2.36387 | 296 ft | 0 kts | 344° |
| 2026-04-22 17:03 | 48.72629 | 2.36387 | 296 ft | 1 kts | 344° |
| 2026-04-22 17:03 | 48.72606 | 2.36397 | 295 ft | 4 kts | 344° |
| 2026-04-22 17:04 | 48.72583 | 2.36407 | 294 ft | 2 kts | 344° |
| 2026-04-22 17:04 | 48.72561 | 2.36420 | 297 ft | 4 kts | 320° |
| 2026-04-22 17:04 | 48.72548 | 2.36450 | 296 ft | 4 kts | 265° |
| 2026-04-22 17:04 | 48.72552 | 2.36482 | 295 ft | 1 kts | 255° |
| 2026-04-22 17:05 | 48.72553 | 2.36482 | 295 ft | 0 kts | 255° |
| 2026-04-22 17:08 | 48.72548 | 2.36458 | 296 ft | 7 kts | 255° |
| 2026-04-22 17:08 | 48.72527 | 2.36331 | 295 ft | 15 kts | 256° |
| 2026-04-22 17:08 | 48.72458 | 2.36241 | 294 ft | 14 kts | 171° |
| 2026-04-22 17:08 | 48.72405 | 2.36145 | 291 ft | 13 kts | 256° |
| 2026-04-22 17:09 | 48.72384 | 2.36019 | 293 ft | 12 kts | 256° |
| 2026-04-22 17:09 | 48.72361 | 2.35902 | 292 ft | 11 kts | 255° |
| 2026-04-22 17:09 | 48.72343 | 2.35799 | 295 ft | 9 kts | 255° |
| 2026-04-22 17:09 | 48.72327 | 2.35711 | 293 ft | 8 kts | 255° |
| 2026-04-22 17:10 | 48.72321 | 2.35677 | 291 ft | 0 kts | 255° |
| 2026-04-22 17:10 | 48.72302 | 2.35603 | 294 ft | 15 kts | 232° |
| 2026-04-22 17:10 | 48.72210 | 2.35614 | 294 ft | 13 kts | 165° |
| 2026-04-22 17:11 | 48.72122 | 2.35650 | 291 ft | 13 kts | 165° |
| 2026-04-22 17:11 | 48.72051 | 2.35704 | 291 ft | 11 kts | 128° |
| 2026-04-22 17:11 | 48.72013 | 2.35789 | 293 ft | 9 kts | 124° |
| 2026-04-22 17:11 | 48.71980 | 2.35862 | 294 ft | 7 kts | 124° |
| 2026-04-22 17:12 | 48.71960 | 2.35920 | 293 ft | 5 kts | 103° |
| 2026-04-22 17:12 | 48.71971 | 2.36022 | 297 ft | 15 kts | 75° |
| 2026-04-22 17:12 | 48.72068 | 2.36496 | 293 ft | 84 kts | 75° |
| 2026-04-22 17:12 | 48.72274 | 2.37666 | 294 ft | 143 kts | 75° |
| 2026-04-22 17:13 | 48.72573 | 2.39288 | 551 ft | 168 kts | 75° |
| 2026-04-22 17:13 | 48.72890 | 2.41033 | 1224 ft | 169 kts | 74° |
| 2026-04-22 17:13 | 48.73203 | 2.42730 | 1902 ft | 170 kts | 74° |
| 2026-04-22 17:13 | 48.73540 | 2.44550 | 2270 ft | 190 kts | 74° |
| 2026-04-22 17:14 | 48.73912 | 2.46570 | 2623 ft | 206 kts | 75° |
| 2026-04-22 17:14 | 48.74060 | 2.48815 | 3082 ft | 220 kts | 88° |
| 2026-04-22 17:14 | 48.74131 | 2.51245 | 3474 ft | 243 kts | 87° |
| 2026-04-22 17:14 | 48.74227 | 2.53911 | 4009 ft | 262 kts | 86° |
| 2026-04-22 17:15 | 48.74259 | 2.55783 | 4561 ft | 267 kts | 94° |
| 2026-04-22 17:15 | 48.73199 | 2.59101 | 5688 ft | 273 kts | 140° |
| 2026-04-22 17:15 | 48.71536 | 2.60484 | 6594 ft | 275 kts | 161° |
| 2026-04-22 17:15 | 48.69682 | 2.61241 | 7489 ft | 278 kts | 168° |
| 2026-04-22 17:16 | 48.67770 | 2.61804 | 8372 ft | 281 kts | 170° |
| 2026-04-22 17:16 | 48.65722 | 2.61882 | 9232 ft | 285 kts | 191° |
| 2026-04-22 17:16 | 48.63880 | 2.60978 | 10041 ft | 288 kts | 207° |
| 2026-04-22 17:16 | 48.62189 | 2.59204 | 10507 ft | 306 kts | 226° |
| 2026-04-22 17:17 | 48.60730 | 2.56674 | 10774 ft | 330 kts | 230° |
| 2026-04-22 17:17 | 48.59207 | 2.53913 | 10982 ft | 353 kts | 231° |
| 2026-04-22 17:17 | 48.57593 | 2.50964 | 11131 ft | 375 kts | 231° |
| 2026-04-22 17:17 | 48.55896 | 2.47859 | 11485 ft | 388 kts | 231° |
| 2026-04-22 17:18 | 48.54166 | 2.44702 | 12082 ft | 393 kts | 230° |
| 2026-04-22 17:18 | 48.52233 | 2.41741 | 12712 ft | 398 kts | 220° |
| 2026-04-22 17:18 | 48.49971 | 2.39320 | 13336 ft | 402 kts | 211° |
| 2026-04-22 17:18 | 48.47544 | 2.37180 | 13961 ft | 405 kts | 210° |
| 2026-04-22 17:19 | 48.42638 | 2.32855 | 15154 ft | 412 kts | 211° |
| 2026-04-22 17:19 | 48.37651 | 2.28457 | 16242 ft | 419 kts | 210° |
| 2026-04-22 17:20 | 48.32509 | 2.24194 | 17246 ft | 426 kts | 203° |
| 2026-04-22 17:20 | 48.26737 | 2.22157 | 18178 ft | 432 kts | 183° |
| 2026-04-22 17:21 | 48.23757 | 2.22263 | 18618 ft | 435 kts | 174° |
| 2026-04-22 17:21 | 48.17701 | 2.23719 | 19464 ft | 440 kts | 171° |
| 2026-04-22 17:22 | 48.11615 | 2.25196 | 20241 ft | 445 kts | 171° |
| 2026-04-22 17:22 | 48.08545 | 2.25898 | 20601 ft | 448 kts | 174° |
| 2026-04-22 17:22 | 48.02299 | 2.26370 | 21275 ft | 452 kts | 178° |
| 2026-04-22 17:23 | 47.99143 | 2.26565 | 21617 ft | 454 kts | 178° |
| 2026-04-22 17:23 | 47.92826 | 2.26951 | 22231 ft | 458 kts | 178° |
| 2026-04-22 17:23 | 47.89625 | 2.27151 | 22532 ft | 460 kts | 178° |
| 2026-04-22 17:24 | 47.86417 | 2.27356 | 22820 ft | 462 kts | 177° |
| 2026-04-22 17:24 | 47.83215 | 2.28020 | 23090 ft | 464 kts | 169° |
| 2026-04-22 17:24 | 47.80030 | 2.28943 | 23357 ft | 466 kts | 169° |
| 2026-04-22 17:24 | 47.76832 | 2.29872 | 23614 ft | 468 kts | 169° |
| 2026-04-22 17:25 | 47.73623 | 2.30801 | 23856 ft | 469 kts | 169° |
| 2026-04-22 17:25 | 47.70446 | 2.31719 | 24089 ft | 471 kts | 169° |
| 2026-04-22 17:25 | 47.67214 | 2.32651 | 24307 ft | 473 kts | 169° |
| 2026-04-22 17:25 | 47.63965 | 2.33591 | 24524 ft | 474 kts | 169° |
| 2026-04-22 17:26 | 47.60715 | 2.34532 | 24717 ft | 475 kts | 169° |
| 2026-04-22 17:26 | 47.57494 | 2.35461 | 24889 ft | 477 kts | 169° |
| 2026-04-22 17:26 | 47.54223 | 2.36400 | 25071 ft | 477 kts | 169° |
| 2026-04-22 17:26 | 47.50955 | 2.37335 | 25302 ft | 477 kts | 169° |
| 2026-04-22 17:27 | 47.48791 | 2.37955 | 25459 ft | 477 kts | 169° |
| 2026-04-22 17:27 | 47.44465 | 2.39197 | 25772 ft | 476 kts | 169° |
| 2026-04-22 17:27 | 47.41207 | 2.40132 | 26011 ft | 476 kts | 169° |
| 2026-04-22 17:27 | 47.37949 | 2.41064 | 26258 ft | 475 kts | 169° |
| 2026-04-22 17:28 | 47.34692 | 2.41992 | 26500 ft | 475 kts | 169° |
| 2026-04-22 17:28 | 47.31437 | 2.42915 | 26741 ft | 474 kts | 169° |
| 2026-04-22 17:28 | 47.28230 | 2.43826 | 26983 ft | 474 kts | 169° |
| 2026-04-22 17:28 | 47.24986 | 2.44753 | 27226 ft | 474 kts | 169° |
| 2026-04-22 17:29 | 47.21757 | 2.45673 | 27472 ft | 473 kts | 169° |
| 2026-04-22 17:29 | 47.18503 | 2.46598 | 27738 ft | 473 kts | 169° |
| 2026-04-22 17:29 | 47.15271 | 2.47516 | 28001 ft | 472 kts | 169° |
| 2026-04-22 17:29 | 47.12039 | 2.48430 | 28264 ft | 471 kts | 169° |
| 2026-04-22 17:30 | 47.08814 | 2.49342 | 28510 ft | 471 kts | 169° |
| 2026-04-22 17:30 | 47.05627 | 2.50239 | 28774 ft | 470 kts | 169° |
| 2026-04-22 17:30 | 47.02403 | 2.51143 | 29031 ft | 470 kts | 169° |
| 2026-04-22 17:30 | 46.99184 | 2.52050 | 29283 ft | 469 kts | 169° |
| 2026-04-22 17:31 | 46.95963 | 2.52956 | 29539 ft | 469 kts | 169° |
| 2026-04-22 17:31 | 46.92750 | 2.53857 | 29797 ft | 468 kts | 169° |
| 2026-04-22 17:31 | 46.89588 | 2.54745 | 30049 ft | 468 kts | 169° |
| 2026-04-22 17:31 | 46.86382 | 2.55648 | 30304 ft | 468 kts | 169° |
| 2026-04-22 17:32 | 46.83171 | 2.56551 | 30558 ft | 467 kts | 169° |
| 2026-04-22 17:32 | 46.81052 | 2.57145 | 30724 ft | 467 kts | 169° |
| 2026-04-22 17:32 | 46.76817 | 2.58329 | 31061 ft | 466 kts | 169° |
| 2026-04-22 17:32 | 46.73623 | 2.59219 | 31292 ft | 466 kts | 169° |
| 2026-04-22 17:33 | 46.71508 | 2.59806 | 31457 ft | 466 kts | 169° |
| 2026-04-22 17:33 | 46.68318 | 2.60690 | 31705 ft | 465 kts | 169° |
| 2026-04-22 17:33 | 46.65135 | 2.61573 | 31948 ft | 465 kts | 169° |
| 2026-04-22 17:33 | 46.61943 | 2.62458 | 32189 ft | 464 kts | 169° |
| 2026-04-22 17:34 | 46.58757 | 2.63340 | 32433 ft | 464 kts | 169° |
| 2026-04-22 17:34 | 46.55619 | 2.64208 | 32669 ft | 463 kts | 169° |
| 2026-04-22 17:34 | 46.52444 | 2.65087 | 32908 ft | 463 kts | 169° |
| 2026-04-22 17:34 | 46.49272 | 2.65963 | 33134 ft | 463 kts | 169° |
| 2026-04-22 17:35 | 46.46101 | 2.66840 | 33363 ft | 463 kts | 169° |
| 2026-04-22 17:35 | 46.42926 | 2.67717 | 33587 ft | 462 kts | 169° |
| 2026-04-22 17:35 | 46.39761 | 2.68588 | 33811 ft | 462 kts | 169° |
| 2026-04-22 17:35 | 46.36634 | 2.69445 | 34029 ft | 462 kts | 169° |
| 2026-04-22 17:36 | 46.33476 | 2.70312 | 34262 ft | 461 kts | 169° |
| 2026-04-22 17:36 | 46.30318 | 2.71179 | 34492 ft | 461 kts | 169° |
| 2026-04-22 17:36 | 46.27165 | 2.72046 | 34719 ft | 460 kts | 169° |
| 2026-04-22 17:36 | 46.23992 | 2.72915 | 34951 ft | 460 kts | 169° |
| 2026-04-22 17:37 | 46.20877 | 2.73765 | 35153 ft | 460 kts | 169° |
| 2026-04-22 17:37 | 46.17723 | 2.74627 | 35351 ft | 460 kts | 169° |
| 2026-04-22 17:37 | 46.14565 | 2.75491 | 35547 ft | 460 kts | 169° |
| 2026-04-22 17:37 | 46.11406 | 2.76353 | 35733 ft | 460 kts | 169° |
| 2026-04-22 17:38 | 46.08251 | 2.77206 | 35912 ft | 460 kts | 169° |
| 2026-04-22 17:38 | 46.05095 | 2.78055 | 36093 ft | 460 kts | 169° |
| 2026-04-22 17:38 | 46.01945 | 2.78907 | 36273 ft | 459 kts | 169° |
| 2026-04-22 17:38 | 45.98799 | 2.79759 | 36436 ft | 459 kts | 169° |
| 2026-04-22 17:39 | 45.95688 | 2.80605 | 36598 ft | 459 kts | 169° |
| 2026-04-22 17:39 | 45.92536 | 2.81461 | 36746 ft | 459 kts | 169° |
| 2026-04-22 17:39 | 45.86240 | 2.83175 | 36997 ft | 461 kts | 169° |
| 2026-04-22 17:40 | 45.83109 | 2.84022 | 37010 ft | 462 kts | 169° |
| 2026-04-22 17:40 | 45.76752 | 2.85727 | 37009 ft | 463 kts | 169° |
| 2026-04-22 17:41 | 45.70432 | 2.87421 | 37009 ft | 464 kts | 169° |
| 2026-04-22 17:41 | 45.64065 | 2.89126 | 37009 ft | 465 kts | 169° |
| 2026-04-22 17:42 | 45.57722 | 2.90820 | 37011 ft | 466 kts | 169° |
| 2026-04-22 17:42 | 45.51361 | 2.92505 | 37017 ft | 467 kts | 169° |
| 2026-04-22 17:43 | 45.44964 | 2.94209 | 37020 ft | 467 kts | 169° |
| 2026-04-22 17:43 | 45.38656 | 2.95893 | 37023 ft | 467 kts | 169° |
| 2026-04-22 17:44 | 45.32283 | 2.97584 | 37023 ft | 468 kts | 169° |
| 2026-04-22 17:44 | 45.25890 | 2.99269 | 37027 ft | 468 kts | 169° |
| 2026-04-22 17:45 | 45.19433 | 3.00961 | 37030 ft | 468 kts | 169° |
| 2026-04-22 17:45 | 45.13053 | 3.02638 | 37033 ft | 468 kts | 169° |
| 2026-04-22 17:46 | 45.06564 | 3.04352 | 37036 ft | 467 kts | 169° |
| 2026-04-22 17:46 | 45.00265 | 3.06006 | 37032 ft | 467 kts | 169° |
| 2026-04-22 17:47 | 44.93859 | 3.07681 | 37032 ft | 467 kts | 169° |
| 2026-04-22 17:47 | 44.87444 | 3.09341 | 37032 ft | 467 kts | 170° |
| 2026-04-22 17:48 | 44.82123 | 3.10718 | 37031 ft | 467 kts | 169° |
| 2026-04-22 17:48 | 44.74741 | 3.12644 | 37030 ft | 466 kts | 169° |
| 2026-04-22 17:49 | 44.68349 | 3.14297 | 37020 ft | 466 kts | 169° |
| 2026-04-22 17:49 | 44.61944 | 3.15940 | 37018 ft | 467 kts | 172° |
| 2026-04-22 17:50 | 44.55581 | 3.16331 | 37019 ft | 467 kts | 180° |
| 2026-04-22 17:50 | 44.49116 | 3.16466 | 37025 ft | 467 kts | 175° |
| 2026-04-22 17:51 | 44.42816 | 3.18545 | 37033 ft | 466 kts | 156° |
| 2026-04-22 17:51 | 44.37233 | 3.23225 | 37027 ft | 466 kts | 146° |
| 2026-04-22 17:52 | 44.31979 | 3.28239 | 37025 ft | 466 kts | 146° |
| 2026-04-22 17:52 | 44.26575 | 3.33349 | 37027 ft | 466 kts | 146° |
| 2026-04-22 17:53 | 44.21196 | 3.38419 | 37024 ft | 467 kts | 146° |
| 2026-04-22 17:53 | 44.15815 | 3.43487 | 37024 ft | 466 kts | 146° |
| 2026-04-22 17:54 | 44.10441 | 3.48536 | 37019 ft | 466 kts | 146° |
| 2026-04-22 17:54 | 44.05066 | 3.53584 | 37014 ft | 467 kts | 146° |
| 2026-04-22 17:55 | 44.00583 | 3.57802 | 37021 ft | 467 kts | 146° |
| 2026-04-22 17:55 | 43.94297 | 3.63691 | 37033 ft | 466 kts | 146° |
| 2026-04-22 17:56 | 43.88926 | 3.68702 | 37033 ft | 465 kts | 146° |
| 2026-04-22 17:56 | 43.83557 | 3.73687 | 37033 ft | 464 kts | 146° |
| 2026-04-22 17:57 | 43.78193 | 3.78656 | 37037 ft | 463 kts | 146° |
| 2026-04-22 17:57 | 43.72841 | 3.83611 | 37033 ft | 463 kts | 146° |
| 2026-04-22 17:58 | 43.67454 | 3.88596 | 37033 ft | 462 kts | 146° |
| 2026-04-22 17:58 | 43.62103 | 3.93529 | 37033 ft | 462 kts | 146° |
| 2026-04-22 17:59 | 43.56994 | 3.98867 | 37031 ft | 461 kts | 135° |
| 2026-04-22 17:59 | 43.52721 | 4.05456 | 37029 ft | 461 kts | 131° |
| 2026-04-22 18:00 | 43.49186 | 4.10950 | 37028 ft | 461 kts | 131° |
| 2026-04-22 18:00 | 43.44195 | 4.18645 | 37027 ft | 461 kts | 132° |
| 2026-04-22 18:01 | 43.39919 | 4.25229 | 37027 ft | 461 kts | 132° |
| 2026-04-22 18:01 | 43.35651 | 4.31803 | 37027 ft | 461 kts | 132° |
| 2026-04-22 18:02 | 43.31380 | 4.38379 | 37027 ft | 461 kts | 132° |
| 2026-04-22 18:02 | 43.27110 | 4.44943 | 37026 ft | 461 kts | 132° |
| 2026-04-22 18:03 | 43.23530 | 4.50435 | 37026 ft | 461 kts | 132° |
| 2026-04-22 18:03 | 43.19245 | 4.56982 | 37026 ft | 461 kts | 132° |
| 2026-04-22 18:04 | 43.14953 | 4.63517 | 37026 ft | 461 kts | 132° |
| 2026-04-22 18:04 | 43.10655 | 4.70035 | 37027 ft | 461 kts | 132° |
| 2026-04-22 18:05 | 43.06043 | 4.76103 | 37026 ft | 461 kts | 145° |
| 2026-04-22 18:05 | 43.00352 | 4.80035 | 37026 ft | 460 kts | 162° |
| 2026-04-22 18:06 | 42.94266 | 4.82734 | 37026 ft | 460 kts | 162° |
| 2026-04-22 18:06 | 42.88181 | 4.85452 | 37027 ft | 461 kts | 162° |
| 2026-04-22 18:07 | 42.82085 | 4.88164 | 37031 ft | 461 kts | 162° |
| 2026-04-22 18:07 | 42.75987 | 4.90869 | 37031 ft | 461 kts | 162° |
| 2026-04-22 18:08 | 42.69810 | 4.93395 | 37028 ft | 461 kts | 166° |
| 2026-04-22 18:08 | 42.63565 | 4.95356 | 37028 ft | 460 kts | 168° |
| 2026-04-22 18:09 | 42.57302 | 4.97162 | 37027 ft | 460 kts | 168° |
| 2026-04-22 18:09 | 42.51056 | 4.99070 | 37027 ft | 460 kts | 167° |
| 2026-04-22 18:10 | 42.44827 | 5.01056 | 37025 ft | 460 kts | 167° |
| 2026-04-22 18:10 | 42.38597 | 5.03037 | 37026 ft | 460 kts | 167° |
| 2026-04-22 18:11 | 42.32366 | 5.05003 | 37023 ft | 460 kts | 167° |
| 2026-04-22 18:11 | 42.25949 | 5.07024 | 37022 ft | 460 kts | 167° |
| 2026-04-22 18:12 | 42.19590 | 5.09017 | 37021 ft | 459 kts | 167° |
| 2026-04-22 18:12 | 42.14609 | 5.10571 | 37021 ft | 460 kts | 167° |
| 2026-04-22 18:13 | 42.07310 | 5.12840 | 37021 ft | 460 kts | 167° |
| 2026-04-22 18:13 | 42.01004 | 5.14777 | 37022 ft | 460 kts | 167° |
| 2026-04-22 18:14 | 41.95753 | 5.16419 | 37024 ft | 460 kts | 167° |
| 2026-04-22 18:14 | 41.88393 | 5.18736 | 37026 ft | 460 kts | 167° |
| 2026-04-22 18:15 | 41.82157 | 5.20538 | 37024 ft | 460 kts | 167° |
| 2026-04-22 18:15 | 41.75863 | 5.22537 | 37025 ft | 460 kts | 167° |
| 2026-04-22 18:16 | 41.69648 | 5.24517 | 37026 ft | 460 kts | 167° |
| 2026-04-22 18:16 | 41.63407 | 5.26641 | 37023 ft | 460 kts | 160° |
| 2026-04-22 18:17 | 41.57382 | 5.29539 | 37023 ft | 460 kts | 160° |
| 2026-04-22 18:17 | 41.51362 | 5.32442 | 37022 ft | 460 kts | 160° |
| 2026-04-22 18:18 | 41.45339 | 5.35337 | 37023 ft | 460 kts | 160° |
| 2026-04-22 18:18 | 41.39313 | 5.38224 | 37023 ft | 460 kts | 160° |
| 2026-04-22 18:19 | 41.33290 | 5.41108 | 37023 ft | 460 kts | 160° |
| 2026-04-22 18:19 | 41.27227 | 5.44020 | 37024 ft | 460 kts | 160° |
| 2026-04-22 18:20 | 41.21193 | 5.46894 | 37025 ft | 461 kts | 160° |
| 2026-04-22 18:20 | 41.15159 | 5.49761 | 37026 ft | 461 kts | 160° |
| 2026-04-22 18:21 | 41.09132 | 5.52636 | 37028 ft | 461 kts | 160° |
| 2026-04-22 18:21 | 41.04071 | 5.55030 | 37026 ft | 461 kts | 161° |
| 2026-04-22 18:22 | 40.98035 | 5.57872 | 37027 ft | 461 kts | 160° |
| 2026-04-22 18:22 | 40.91995 | 5.60733 | 37028 ft | 461 kts | 160° |
| 2026-04-22 18:23 | 40.85954 | 5.63594 | 37036 ft | 461 kts | 160° |
| 2026-04-22 18:23 | 40.79912 | 5.66437 | 37029 ft | 461 kts | 160° |
| 2026-04-22 18:24 | 40.70847 | 5.70694 | 37035 ft | 461 kts | 160° |
| 2026-04-22 18:25 | 40.61790 | 5.74930 | 37027 ft | 460 kts | 161° |
| 2026-04-22 18:25 | 40.55750 | 5.77745 | 37025 ft | 460 kts | 161° |
| 2026-04-22 18:26 | 40.46697 | 5.81954 | 37022 ft | 460 kts | 160° |
| 2026-04-22 18:26 | 40.40789 | 5.85285 | 37020 ft | 460 kts | 154° |
| 2026-04-22 18:27 | 40.35025 | 5.88913 | 37019 ft | 460 kts | 154° |
| 2026-04-22 18:27 | 40.29253 | 5.92528 | 37018 ft | 460 kts | 154° |
| 2026-04-22 18:28 | 40.23484 | 5.96130 | 37017 ft | 460 kts | 155° |
| 2026-04-22 18:28 | 40.17708 | 5.99733 | 37018 ft | 460 kts | 155° |
| 2026-04-22 18:29 | 40.11932 | 6.03326 | 37018 ft | 460 kts | 155° |
| 2026-04-22 18:29 | 40.06145 | 6.06915 | 37019 ft | 460 kts | 155° |
| 2026-04-22 18:30 | 39.97467 | 6.12281 | 37020 ft | 460 kts | 155° |
| 2026-04-22 18:31 | 39.91685 | 6.15850 | 37020 ft | 460 kts | 155° |
| 2026-04-22 18:31 | 39.85869 | 6.19450 | 37020 ft | 460 kts | 155° |
| 2026-04-22 18:32 | 39.80089 | 6.23019 | 37019 ft | 460 kts | 155° |
| 2026-04-22 18:32 | 39.74307 | 6.26575 | 37019 ft | 460 kts | 155° |
| 2026-04-22 18:33 | 39.68528 | 6.30124 | 37018 ft | 460 kts | 155° |
| 2026-04-22 18:33 | 39.62741 | 6.33665 | 37017 ft | 460 kts | 155° |
| 2026-04-22 18:34 | 39.56951 | 6.37195 | 37018 ft | 460 kts | 155° |
| 2026-04-22 18:34 | 39.51162 | 6.40720 | 37017 ft | 460 kts | 155° |
| 2026-04-22 18:35 | 39.45376 | 6.44248 | 37017 ft | 460 kts | 155° |
| 2026-04-22 18:35 | 39.39543 | 6.47794 | 37018 ft | 460 kts | 155° |
| 2026-04-22 18:36 | 39.33795 | 6.51279 | 37021 ft | 460 kts | 155° |
| 2026-04-22 18:36 | 39.27942 | 6.54826 | 37024 ft | 461 kts | 155° |
| 2026-04-22 18:37 | 39.22137 | 6.58337 | 37027 ft | 461 kts | 155° |
| 2026-04-22 18:37 | 39.17269 | 6.61279 | 37028 ft | 461 kts | 155° |
| 2026-04-22 18:38 | 39.10522 | 6.65356 | 37031 ft | 461 kts | 155° |
| 2026-04-22 18:38 | 39.04711 | 6.68845 | 37027 ft | 461 kts | 155° |
| 2026-04-22 18:39 | 38.95947 | 6.73945 | 37032 ft | 461 kts | 158° |
| 2026-04-22 18:39 | 38.89957 | 6.77028 | 37027 ft | 461 kts | 159° |
| 2026-04-22 18:40 | 38.83992 | 6.80026 | 37026 ft | 461 kts | 159° |
| 2026-04-22 18:40 | 38.78044 | 6.83084 | 37026 ft | 460 kts | 158° |
| 2026-04-22 18:41 | 38.72115 | 6.86180 | 37024 ft | 460 kts | 158° |
| 2026-04-22 18:41 | 38.66185 | 6.89264 | 37023 ft | 460 kts | 158° |
| 2026-04-22 18:42 | 38.60249 | 6.92333 | 37023 ft | 460 kts | 158° |
| 2026-04-22 18:42 | 38.54310 | 6.95403 | 37023 ft | 460 kts | 158° |
| 2026-04-22 18:43 | 38.48376 | 6.98464 | 37022 ft | 460 kts | 158° |
| 2026-04-22 18:43 | 38.42441 | 7.01514 | 37022 ft | 460 kts | 158° |
| 2026-04-22 18:44 | 38.36503 | 7.04561 | 37022 ft | 460 kts | 158° |
| 2026-04-22 18:44 | 38.30561 | 7.07607 | 37023 ft | 460 kts | 158° |
| 2026-04-22 18:45 | 38.24622 | 7.10644 | 37022 ft | 460 kts | 158° |
| 2026-04-22 18:45 | 38.18677 | 7.13678 | 37023 ft | 460 kts | 158° |
| 2026-04-22 18:46 | 38.12732 | 7.16705 | 37022 ft | 460 kts | 158° |
| 2026-04-22 18:46 | 38.06756 | 7.19746 | 37021 ft | 460 kts | 158° |
| 2026-04-22 18:47 | 38.00818 | 7.22764 | 37021 ft | 460 kts | 158° |
| 2026-04-22 18:47 | 37.94876 | 7.25779 | 37022 ft | 460 kts | 158° |
| 2026-04-22 18:48 | 37.88926 | 7.28792 | 37028 ft | 460 kts | 158° |
| 2026-04-22 18:48 | 37.82981 | 7.31796 | 37027 ft | 460 kts | 158° |
| 2026-04-22 18:49 | 37.77032 | 7.34797 | 37024 ft | 460 kts | 158° |
| 2026-04-22 18:49 | 37.71083 | 7.37801 | 37024 ft | 460 kts | 158° |
| 2026-04-22 18:50 | 37.65131 | 7.40785 | 37024 ft | 460 kts | 158° |
| 2026-04-22 18:50 | 37.59180 | 7.43773 | 37023 ft | 460 kts | 158° |
| 2026-04-22 18:51 | 37.54193 | 7.46268 | 37023 ft | 460 kts | 159° |
| 2026-04-22 18:51 | 37.48243 | 7.49252 | 37023 ft | 460 kts | 158° |
| 2026-04-22 18:52 | 37.42296 | 7.52232 | 37023 ft | 460 kts | 159° |
| 2026-04-22 18:52 | 37.36339 | 7.55202 | 37023 ft | 460 kts | 159° |
| 2026-04-22 18:53 | 37.30386 | 7.58157 | 37023 ft | 460 kts | 159° |
| 2026-04-22 18:53 | 37.24432 | 7.61112 | 37023 ft | 460 kts | 159° |
| 2026-04-22 18:54 | 37.18478 | 7.64071 | 37023 ft | 460 kts | 159° |
| 2026-04-22 18:54 | 37.12530 | 7.67019 | 37022 ft | 460 kts | 159° |
| 2026-04-22 18:55 | 37.06576 | 7.69961 | 37022 ft | 460 kts | 159° |
| 2026-04-22 18:55 | 37.00620 | 7.72896 | 37022 ft | 460 kts | 159° |
| 2026-04-22 18:56 | 36.94664 | 7.75832 | 37021 ft | 460 kts | 159° |
| 2026-04-22 18:56 | 36.88711 | 7.78773 | 37021 ft | 460 kts | 159° |
| 2026-04-22 18:57 | 36.82991 | 7.82421 | 37020 ft | 460 kts | 144° |
| 2026-04-22 18:57 | 36.78355 | 7.87827 | 37018 ft | 460 kts | 134° |
| 2026-04-22 18:58 | 36.73888 | 7.93617 | 37017 ft | 460 kts | 134° |
| 2026-04-22 18:58 | 36.69419 | 7.99399 | 37016 ft | 460 kts | 134° |
| 2026-04-22 18:59 | 36.64977 | 8.05156 | 37007 ft | 461 kts | 134° |
| 2026-04-22 18:59 | 36.60537 | 8.10917 | 37009 ft | 461 kts | 134° |
| 2026-04-22 19:00 | 36.56077 | 8.16674 | 37005 ft | 462 kts | 134° |
| 2026-04-22 19:00 | 36.51603 | 8.22425 | 37003 ft | 463 kts | 134° |
| 2026-04-22 19:01 | 36.47092 | 8.28220 | 36999 ft | 464 kts | 134° |
| 2026-04-22 19:01 | 36.42604 | 8.33970 | 37009 ft | 464 kts | 134° |
| 2026-04-22 19:02 | 36.37640 | 8.39040 | 37012 ft | 463 kts | 146° |
| 2026-04-22 19:02 | 36.32274 | 8.43479 | 37006 ft | 464 kts | 146° |
| 2026-04-22 19:03 | 36.26906 | 8.47922 | 37006 ft | 464 kts | 146° |
| 2026-04-22 19:03 | 36.21535 | 8.52360 | 37012 ft | 464 kts | 146° |
| 2026-04-22 19:04 | 36.16121 | 8.56822 | 37021 ft | 464 kts | 146° |
| 2026-04-22 19:04 | 36.10744 | 8.61245 | 37022 ft | 464 kts | 146° |
| 2026-04-22 19:05 | 36.05374 | 8.65665 | 37021 ft | 464 kts | 146° |
| 2026-04-22 19:05 | 36.00004 | 8.70079 | 37017 ft | 464 kts | 147° |
| 2026-04-22 19:06 | 35.94547 | 8.74427 | 37016 ft | 464 kts | 148° |
| 2026-04-22 19:07 | 35.86664 | 8.80515 | 37012 ft | 464 kts | 148° |
| 2026-04-22 19:07 | 35.81193 | 8.84758 | 36985 ft | 464 kts | 150° |
| 2026-04-22 19:08 | 35.75700 | 8.89039 | 36971 ft | 469 kts | 150° |
| 2026-04-22 19:08 | 35.70181 | 8.93343 | 36971 ft | 470 kts | 150° |
| 2026-04-22 19:09 | 35.64655 | 8.97627 | 36973 ft | 470 kts | 150° |
| 2026-04-22 19:09 | 35.60024 | 9.01211 | 36981 ft | 470 kts | 150° |
| 2026-04-22 19:10 | 35.53560 | 9.06209 | 36980 ft | 470 kts | 150° |
| 2026-04-22 19:10 | 35.48026 | 9.10471 | 36980 ft | 470 kts | 150° |
| 2026-04-22 19:11 | 35.42495 | 9.14733 | 36981 ft | 470 kts | 150° |
| 2026-04-22 19:11 | 35.36953 | 9.19005 | 36795 ft | 469 kts | 150° |
| 2026-04-22 19:11 | 35.34185 | 9.21131 | 36358 ft | 471 kts | 150° |
| 2026-04-22 19:12 | 35.31409 | 9.23259 | 35731 ft | 470 kts | 150° |
| 2026-04-22 19:12 | 35.28633 | 9.25385 | 35105 ft | 471 kts | 150° |
| 2026-04-22 19:12 | 35.25846 | 9.27520 | 34481 ft | 474 kts | 150° |
| 2026-04-22 19:12 | 35.23045 | 9.29665 | 33853 ft | 477 kts | 150° |
| 2026-04-22 19:13 | 35.20229 | 9.31820 | 33228 ft | 478 kts | 150° |
| 2026-04-22 19:13 | 35.17406 | 9.33978 | 32600 ft | 479 kts | 150° |
| 2026-04-22 19:13 | 35.14578 | 9.36138 | 31976 ft | 480 kts | 150° |
| 2026-04-22 19:13 | 35.11744 | 9.38300 | 31353 ft | 481 kts | 150° |
| 2026-04-22 19:14 | 35.08898 | 9.40467 | 30726 ft | 482 kts | 150° |
| 2026-04-22 19:14 | 35.06056 | 9.42632 | 30095 ft | 483 kts | 150° |
| 2026-04-22 19:14 | 35.03204 | 9.44805 | 29472 ft | 483 kts | 150° |
| 2026-04-22 19:14 | 35.00347 | 9.46982 | 28847 ft | 485 kts | 150° |
| 2026-04-22 19:15 | 34.98416 | 9.48453 | 28421 ft | 486 kts | 150° |
| 2026-04-22 19:15 | 34.94608 | 9.51349 | 27593 ft | 489 kts | 150° |
| 2026-04-22 19:15 | 34.91711 | 9.53543 | 26966 ft | 491 kts | 150° |
| 2026-04-22 19:15 | 34.88767 | 9.55767 | 26333 ft | 493 kts | 150° |
| 2026-04-22 19:16 | 34.85889 | 9.57942 | 25709 ft | 494 kts | 150° |
| 2026-04-22 19:16 | 34.82922 | 9.60187 | 25074 ft | 497 kts | 150° |
| 2026-04-22 19:16 | 34.79982 | 9.62413 | 24448 ft | 499 kts | 149° |
| 2026-04-22 19:16 | 34.77037 | 9.64642 | 23819 ft | 497 kts | 149° |
| 2026-04-22 19:17 | 34.75097 | 9.66109 | 23403 ft | 495 kts | 149° |
| 2026-04-22 19:17 | 34.71206 | 9.69048 | 22566 ft | 490 kts | 149° |
| 2026-04-22 19:17 | 34.69294 | 9.70491 | 22152 ft | 487 kts | 149° |
| 2026-04-22 19:17 | 34.66427 | 9.72653 | 21529 ft | 483 kts | 149° |
| 2026-04-22 19:18 | 34.63584 | 9.74790 | 20903 ft | 479 kts | 150° |
| 2026-04-22 19:18 | 34.60769 | 9.76905 | 20278 ft | 474 kts | 149° |
| 2026-04-22 19:18 | 34.57974 | 9.79008 | 19651 ft | 470 kts | 149° |
| 2026-04-22 19:18 | 34.55205 | 9.81093 | 19027 ft | 466 kts | 149° |
| 2026-04-22 19:19 | 34.52464 | 9.83152 | 18403 ft | 462 kts | 149° |
| 2026-04-22 19:19 | 34.49743 | 9.85188 | 17780 ft | 458 kts | 149° |
| 2026-04-22 19:19 | 34.47045 | 9.87207 | 17152 ft | 454 kts | 149° |
| 2026-04-22 19:19 | 34.44371 | 9.89208 | 16527 ft | 449 kts | 149° |
| 2026-04-22 19:20 | 34.41819 | 9.91356 | 15895 ft | 445 kts | 141° |
| 2026-04-22 19:20 | 34.39581 | 9.93929 | 15573 ft | 442 kts | 132° |
| 2026-04-22 19:20 | 34.37660 | 9.96825 | 15146 ft | 440 kts | 127° |
| 2026-04-22 19:20 | 34.35841 | 9.99776 | 14647 ft | 436 kts | 127° |
| 2026-04-22 19:21 | 34.34037 | 10.02710 | 14148 ft | 432 kts | 127° |
| 2026-04-22 19:21 | 34.32251 | 10.05614 | 13649 ft | 429 kts | 127° |
| 2026-04-22 19:21 | 34.30456 | 10.08530 | 13145 ft | 425 kts | 127° |
| 2026-04-22 19:21 | 34.28723 | 10.11347 | 12647 ft | 421 kts | 127° |
| 2026-04-22 19:22 | 34.26962 | 10.14204 | 12140 ft | 416 kts | 127° |
| 2026-04-22 19:22 | 34.25236 | 10.16995 | 11641 ft | 413 kts | 127° |
| 2026-04-22 19:22 | 34.23522 | 10.19764 | 11298 ft | 409 kts | 127° |
| 2026-04-22 19:22 | 34.21859 | 10.22449 | 11046 ft | 391 kts | 127° |
| 2026-04-22 19:23 | 34.20263 | 10.25025 | 10795 ft | 374 kts | 127° |
| 2026-04-22 19:23 | 34.18735 | 10.27487 | 10546 ft | 359 kts | 127° |
| 2026-04-22 19:23 | 34.17265 | 10.29858 | 10287 ft | 346 kts | 127° |
| 2026-04-22 19:23 | 34.15845 | 10.32147 | 10047 ft | 335 kts | 128° |
| 2026-04-22 19:24 | 34.14471 | 10.34358 | 9858 ft | 322 kts | 128° |
| 2026-04-22 19:24 | 34.13150 | 10.36479 | 9731 ft | 308 kts | 128° |
| 2026-04-22 19:24 | 34.11886 | 10.38509 | 9603 ft | 297 kts | 128° |
| 2026-04-22 19:24 | 34.10652 | 10.40491 | 9481 ft | 294 kts | 128° |
| 2026-04-22 19:25 | 34.09428 | 10.42457 | 9362 ft | 293 kts | 128° |
| 2026-04-22 19:25 | 34.08201 | 10.44429 | 8980 ft | 294 kts | 128° |
| 2026-04-22 19:25 | 34.06974 | 10.46398 | 8524 ft | 293 kts | 128° |
| 2026-04-22 19:25 | 34.05749 | 10.48363 | 8079 ft | 292 kts | 129° |
| 2026-04-22 19:26 | 34.04526 | 10.50320 | 7625 ft | 291 kts | 129° |
| 2026-04-22 19:26 | 34.03311 | 10.52259 | 7174 ft | 290 kts | 129° |
| 2026-04-22 19:26 | 34.02102 | 10.54194 | 6722 ft | 288 kts | 129° |
| 2026-04-22 19:26 | 34.00901 | 10.56117 | 6272 ft | 286 kts | 129° |
| 2026-04-22 19:27 | 33.99592 | 10.57894 | 5819 ft | 282 kts | 147° |
| 2026-04-22 19:27 | 33.97802 | 10.58670 | 5367 ft | 273 kts | 180° |
| 2026-04-22 19:27 | 33.95991 | 10.58156 | 4895 ft | 269 kts | 206° |
| 2026-04-22 19:27 | 33.94354 | 10.57063 | 4513 ft | 265 kts | 210° |
| 2026-04-22 19:28 | 33.92743 | 10.56113 | 4351 ft | 252 kts | 202° |
| 2026-04-22 19:28 | 33.91121 | 10.55511 | 4308 ft | 236 kts | 193° |
| 2026-04-22 19:28 | 33.89546 | 10.55493 | 4246 ft | 223 kts | 161° |
| 2026-04-22 19:28 | 33.88388 | 10.56630 | 4178 ft | 219 kts | 123° |
| 2026-04-22 19:29 | 33.87652 | 10.58242 | 4089 ft | 220 kts | 120° |
| 2026-04-22 19:29 | 33.87126 | 10.59966 | 3987 ft | 222 kts | 99° |
| 2026-04-22 19:29 | 33.87118 | 10.61834 | 3763 ft | 224 kts | 88° |
| 2026-04-22 19:29 | 33.87182 | 10.63710 | 3196 ft | 224 kts | 89° |
| 2026-04-22 19:30 | 33.87219 | 10.64977 | 2817 ft | 225 kts | 89° |
| 2026-04-22 19:30 | 33.87288 | 10.67489 | 2075 ft | 224 kts | 88° |
| 2026-04-22 19:30 | 33.87336 | 10.69354 | 1537 ft | 223 kts | 88° |
| 2026-04-22 19:30 | 33.87380 | 10.71148 | 1377 ft | 202 kts | 87° |
| 2026-04-22 19:31 | 33.87418 | 10.72735 | 1106 ft | 180 kts | 86° |
| 2026-04-22 19:31 | 33.87454 | 10.74217 | 564 ft | 176 kts | 86° |
| 2026-04-22 19:31 | 33.87492 | 10.75661 | 126 ft | 167 kts | 86° |
| 2026-04-22 19:31 | 33.87527 | 10.76981 | 36 ft | 145 kts | 86° |
| 2026-04-22 19:32 | 33.87554 | 10.77957 | 21 ft | 76 kts | 89° |
| 2026-04-22 19:32 | 33.87558 | 10.78231 | 21 ft | 0 kts | 89° |
| 2026-04-22 19:32 | 33.87559 | 10.78249 | 21 ft | 11 kts | 89° |
| 2026-04-22 19:32 | 33.87563 | 10.78410 | 18 ft | 21 kts | 88° |
| 2026-04-22 19:33 | 33.87549 | 10.78568 | 21 ft | 18 kts | 125° |
| 2026-04-22 19:33 | 33.87449 | 10.78593 | 21 ft | 14 kts | 191° |
| 2026-04-22 19:33 | 33.87401 | 10.78523 | 26 ft | 0 kts | 264° |
| 2026-04-22 19:34 | 33.87401 | 10.78522 | 23 ft | 1 kts | 264° |
| 2026-04-22 19:35 | 33.87398 | 10.78454 | 27 ft | 13 kts | 267° |
| 2026-04-22 19:35 | 33.87392 | 10.78319 | 27 ft | 19 kts | 267° |
| 2026-04-22 19:35 | 33.87398 | 10.78206 | 27 ft | 22 kts | 277° |
| 2026-04-22 19:35 | 33.87396 | 10.78095 | 26 ft | 12 kts | 268° |
| 2026-04-22 19:36 | 33.87392 | 10.77981 | 27 ft | 15 kts | 267° |
| 2026-04-22 19:36 | 33.87390 | 10.77890 | 27 ft | 5 kts | 269° |
| 2026-04-22 19:36 | 33.87390 | 10.77855 | 27 ft | 4 kts | 269° |
| 2026-04-22 19:36 | 33.87390 | 10.77823 | 27 ft | 4 kts | 269° |
| 2026-04-22 19:37 | 33.87389 | 10.77794 | 27 ft | 5 kts | 267° |
| 2026-04-22 19:37 | 33.87359 | 10.77773 | 27 ft | 4 kts | 186° |
| 2026-04-22 19:37 | 33.87336 | 10.77772 | 27 ft | 3 kts | 178° |
| 2026-04-22 19:37 | 33.87320 | 10.77773 | 27 ft | 0 kts | 178° |